Time;durP1;ratioP1;P1;durP2;ratioP2;P2;SDS_P1;SDS_P2;PMS_P1;PMS_P2;Temp;Humidity;BMP_temperature;BMP_pressure;BME280_temperature;BME280_humidity;BME280_pressure;Samples;Min_cycle;Max_cycle;Signal;HPM_P1;HPM_P2
2021/09/06 00:00:39;;;;;;;7.43;5.05;;;;;;;13.66;74.80;101345.00;5005420;28;20476;-82
2021/09/06 00:03:04;;;;;;;6.13;4.15;;;;;;;13.64;74.66;101345.91;5003681;28;20061;-81
2021/09/06 00:05:30;;;;;;;7.22;5.18;;;;;;;13.59;74.68;101348.56;4988614;28;20507;-81
2021/09/06 00:07:55;;;;;;;7.18;4.35;;;;;;;13.56;75.28;101343.28;5003161;28;20042;-82
2021/09/06 00:10:34;;;;;;;8.38;5.10;;;;;;;13.52;74.94;101339.78;5009158;28;20038;-81
2021/09/06 00:13:01;;;;;;;7.07;4.97;;;;;;;13.51;74.31;101338.00;5010370;28;20088;-82
2021/09/06 00:15:27;;;;;;;8.73;4.18;;;;;;;13.51;74.70;101343.31;5007076;28;20117;-81
2021/09/06 00:17:52;;;;;;;7.32;4.95;;;;;;;13.51;74.60;101338.00;5009518;28;20053;-81
2021/09/06 00:20:18;;;;;;;8.63;4.75;;;;;;;13.44;75.08;101336.31;5007156;28;20503;-81
2021/09/06 00:22:44;;;;;;;6.75;4.32;;;;;;;13.43;75.27;101336.28;5009319;28;20504;-81
2021/09/06 00:25:09;;;;;;;6.82;4.25;;;;;;;13.43;75.09;101341.59;5006114;28;20073;-81
2021/09/06 00:27:35;;;;;;;6.57;4.63;;;;;;;13.42;74.64;101335.41;5009463;28;20128;-81
2021/09/06 00:30:00;;;;;;;7.50;5.07;;;;;;;13.42;74.99;101337.19;5005441;28;20098;-82
2021/09/06 00:32:26;;;;;;;7.03;4.40;;;;;;;13.38;75.19;101337.19;4999607;28;20041;-81
2021/09/06 00:34:51;;;;;;;7.93;4.70;;;;;;;13.26;75.68;101337.25;4989333;28;20077;-81
2021/09/06 00:37:16;;;;;;;8.13;4.28;;;;;;;13.20;76.07;101331.94;5007547;28;20030;-82
2021/09/06 00:39:42;;;;;;;11.02;4.68;;;;;;;13.15;75.84;101331.06;5006073;28;20117;-81
2021/09/06 00:42:08;;;;;;;7.85;4.88;;;;;;;13.08;76.06;101338.19;5006627;28;20405;-81
2021/09/06 00:44:33;;;;;;;7.43;5.00;;;;;;;13.03;76.67;101334.66;5007882;28;20034;-81
2021/09/06 00:47:00;;;;;;;6.93;4.78;;;;;;;13.03;76.23;101336.44;4996708;28;20544;-81
2021/09/06 00:49:26;;;;;;;6.20;4.28;;;;;;;13.02;76.45;101332.91;4990789;28;20038;-81
2021/09/06 00:51:51;;;;;;;7.97;5.05;;;;;;;13.02;76.38;101332.91;4996594;28;20030;-81
2021/09/06 00:54:17;;;;;;;7.85;4.72;;;;;;;13.01;76.63;101335.56;4991526;28;20042;-81
2021/09/06 00:56:45;;;;;;;7.00;4.88;;;;;;;12.94;77.48;101337.31;5003851;28;20034;-82
2021/09/06 00:59:12;;;;;;;6.38;4.50;;;;;;;12.86;77.23;101340.03;5009579;28;20610;-81
2021/09/06 01:01:39;;;;;;;9.32;4.60;;;;;;;12.81;77.44;101340.91;5005011;28;20563;-80
2021/09/06 01:04:06;;;;;;;10.00;5.15;;;;;;;12.77;78.03;101336.50;5008855;28;20038;-81
2021/09/06 01:06:48;;;;;;;7.75;4.60;;;;;;;12.76;77.77;101334.72;4986983;28;20477;-81
2021/09/06 01:09:36;;;;;;;5.95;4.68;;;;;;;12.76;77.73;101335.63;4990838;28;20038;-80
2021/09/06 01:12:19;;;;;;;8.73;5.22;;;;;;;12.75;77.23;101340.91;5013296;28;20428;-81
2021/09/06 01:14:46;;;;;;;8.25;5.10;;;;;;;12.75;77.74;101341.78;4987116;28;20104;-82
2021/09/06 01:17:13;;;;;;;9.27;5.18;;;;;;;12.75;77.43;101335.63;5004471;28;20030;-82
2021/09/06 01:19:41;;;;;;;8.73;6.20;;;;;;;12.71;77.22;101334.75;5007458;28;20022;-82
2021/09/06 01:25:08;;;;;;;10.38;5.65;;;;;;;12.59;78.41;101340.06;5007896;23;20114;-81
2021/09/06 01:27:34;;;;;;;9.07;5.38;;;;;;;12.57;77.89;101344.47;4996027;28;20034;-81
2021/09/06 01:29:59;;;;;;;7.88;5.45;;;;;;;12.53;78.47;101343.63;4981864;28;20053;-82
2021/09/06 01:32:26;;;;;;;7.03;4.85;;;;;;;12.51;78.69;101350.66;4990879;28;20034;-81
2021/09/06 01:34:52;;;;;;;8.07;5.13;;;;;;;12.51;78.33;101342.72;4982513;28;20061;-81
2021/09/06 01:37:17;;;;;;;10.00;5.75;;;;;;;12.49;78.35;101349.78;4976669;28;20034;-82
2021/09/06 01:39:49;;;;;;;10.77;5.93;;;;;;;12.48;78.53;101350.69;4982205;28;20084;-82
2021/09/06 01:42:15;;;;;;;8.45;5.05;;;;;;;12.46;79.23;101344.50;4972676;28;20500;-83
2021/09/06 01:44:41;;;;;;;8.70;5.13;;;;;;;12.41;78.89;101355.06;4993705;28;20030;-82
2021/09/06 01:47:10;;;;;;;9.13;4.85;;;;;;;12.37;78.96;101347.16;4974415;28;20066;-82
2021/09/06 01:49:36;;;;;;;9.88;5.57;;;;;;;12.30;79.56;101340.97;4973325;28;20058;-81
2021/09/06 01:52:02;;;;;;;8.70;6.35;;;;;;;12.24;79.76;101336.56;4984975;28;20037;-82
2021/09/06 01:54:27;;;;;;;10.05;5.93;;;;;;;12.22;79.77;101338.31;4957115;28;20103;-82
2021/09/06 01:56:53;;;;;;;9.40;5.88;;;;;;;12.20;79.62;101340.09;4993954;28;20050;-83
2021/09/06 01:59:18;;;;;;;8.57;5.65;;;;;;;12.17;80.04;101339.22;4976572;28;20088;-82
2021/09/06 02:01:44;;;;;;;9.93;5.45;;;;;;;12.12;79.97;101339.22;4976077;28;20415;-82
2021/09/06 02:04:10;;;;;;;8.02;5.93;;;;;;;12.09;80.26;101339.22;4975979;28;20034;-81
2021/09/06 02:06:39;;;;;;;10.32;6.63;;;;;;;12.06;80.35;101347.16;4976383;28;20091;-82
2021/09/06 02:09:05;;;;;;;8.77;5.88;;;;;;;12.03;80.06;101352.44;4994290;28;20034;-82
2021/09/06 02:11:33;;;;;;;10.48;6.65;;;;;;;12.02;80.20;101353.31;4976687;28;20053;-81
2021/09/06 02:14:01;;;;;;;12.45;6.72;;;;;;;12.02;80.21;101348.00;4975339;28;20030;-81
2021/09/06 02:16:27;;;;;;;10.13;6.88;;;;;;;12.03;80.42;101357.72;4966747;28;20064;-81
2021/09/06 02:18:55;;;;;;;11.63;6.13;;;;;;;12.00;80.50;101355.09;4985115;28;20081;-81
2021/09/06 02:21:22;;;;;;;6.78;4.68;;;;;;;11.95;80.09;101360.38;4975613;28;20031;-82
2021/09/06 02:23:52;;;;;;;7.93;5.18;;;;;;;11.92;80.42;101359.47;4976249;28;20059;-82
2021/09/06 02:26:17;;;;;;;12.23;6.03;;;;;;;11.83;79.83;101358.53;4985226;28;20030;-81
2021/09/06 02:28:44;;;;;;;7.68;5.00;;;;;;;11.77;80.42;101366.47;4975276;28;20488;-82
2021/09/06 02:31:10;;;;;;;7.38;5.32;;;;;;;11.74;81.33;101358.53;4976757;28;20026;-81
2021/09/06 02:34:02;;;;;;;9.32;6.13;;;;;;;11.69;81.06;101362.94;4981384;28;20120;-81
2021/09/06 02:36:31;;;;;;;8.82;5.68;;;;;;;11.61;81.31;101370.84;4976324;28;20033;-81
2021/09/06 02:38:57;;;;;;;9.20;5.43;;;;;;;11.62;81.30;101363.78;4989891;28;20035;-81
2021/09/06 02:41:22;;;;;;;9.68;5.82;;;;;;;11.64;81.94;101362.03;4976248;28;20089;-82
2021/09/06 02:43:50;;;;;;;9.48;6.97;;;;;;;11.62;81.57;101355.84;4975856;28;20065;-82
2021/09/06 02:46:16;;;;;;;9.43;5.78;;;;;;;11.61;81.91;101354.09;4972927;28;20070;-82
2021/09/06 02:48:42;;;;;;;7.93;6.00;;;;;;;11.60;81.96;101360.25;4969232;28;20026;-81
2021/09/06 02:51:07;;;;;;;8.57;6.13;;;;;;;11.59;82.45;101358.50;4972972;28;20404;-81
2021/09/06 02:53:33;;;;;;;7.93;5.75;;;;;;;11.66;82.82;101356.72;4976094;28;20138;-81
2021/09/06 02:55:58;;;;;;;7.38;5.40;;;;;;;11.70;81.92;101358.50;4975948;28;20046;-81
2021/09/06 02:58:25;;;;;;;7.78;5.10;;;;;;;11.66;81.61;101367.31;4975202;28;20049;-81
2021/09/06 03:00:52;;;;;;;8.75;6.53;;;;;;;11.52;82.71;101359.34;4984072;28;20061;-81
2021/09/06 03:03:18;;;;;;;10.55;6.13;;;;;;;11.53;83.25;101358.47;4990447;28;20500;-81
2021/09/06 03:05:44;;;;;;;9.90;7.03;;;;;;;11.49;82.98;101361.97;4975506;28;20038;-81
2021/09/06 03:08:10;;;;;;;9.98;6.03;;;;;;;11.50;83.05;101361.09;4983873;28;20125;-82
2021/09/06 03:10:36;;;;;;;8.90;6.35;;;;;;;11.51;83.19;101362.88;4974121;28;20121;-82
2021/09/06 03:13:01;;;;;;;9.57;6.25;;;;;;;11.47;83.56;101364.59;4975045;28;20034;-81
2021/09/06 03:15:27;;;;;;;9.95;6.28;;;;;;;11.45;83.66;101360.19;4975411;28;20030;-82
2021/09/06 03:17:56;;;;;;;10.10;6.10;;;;;;;11.43;83.56;101359.31;4972587;28;20499;-82
2021/09/06 03:20:45;;;;;;;8.43;6.22;;;;;;;11.45;83.34;101360.19;4984290;28;20050;-82
2021/09/06 03:23:12;;;;;;;9.00;5.75;;;;;;;11.47;83.03;101350.50;4974821;28;20034;-82
2021/09/06 03:25:40;;;;;;;11.45;6.82;;;;;;;11.51;82.72;101352.31;4975201;28;20062;-83
2021/09/06 03:28:06;;;;;;;8.70;6.25;;;;;;;11.50;83.15;101350.50;4975418;28;20689;-82
2021/09/06 03:30:31;;;;;;;8.40;6.00;;;;;;;11.49;82.82;101343.47;4975019;28;20034;-82
2021/09/06 03:32:56;;;;;;;8.65;5.93;;;;;;;11.36;83.47;101343.44;4974952;28;20030;-82
2021/09/06 03:35:22;;;;;;;10.75;5.45;;;;;;;11.37;83.02;101344.31;4974253;28;20038;-82
2021/09/06 03:37:48;;;;;;;9.18;6.22;;;;;;;11.36;82.70;101342.53;4969852;28;20035;-82
2021/09/06 03:40:19;;;;;;;8.43;5.30;;;;;;;11.31;83.35;101344.28;4975083;28;20034;-82
2021/09/06 03:42:45;;;;;;;9.98;6.32;;;;;;;11.26;83.25;101346.91;4989839;28;20062;-82
2021/09/06 03:45:12;;;;;;;9.40;5.60;;;;;;;11.30;82.76;101348.69;4976188;28;20061;-81
2021/09/06 03:47:38;;;;;;;10.13;6.20;;;;;;;11.33;83.22;101347.81;4994901;28;20034;-81
2021/09/06 03:50:04;;;;;;;9.75;5.90;;;;;;;11.31;82.99;101342.53;4969664;28;20034;-82
2021/09/06 03:52:33;;;;;;;8.32;5.80;;;;;;;11.27;83.03;101351.34;4990510;28;20022;-82
2021/09/06 03:54:59;;;;;;;10.32;5.63;;;;;;;11.26;82.94;101349.56;4979254;28;20385;-82
2021/09/06 03:57:25;;;;;;;8.30;5.68;;;;;;;11.26;83.15;101344.25;4977223;28;20034;-82
2021/09/06 03:59:51;;;;;;;8.93;6.13;;;;;;;11.21;83.26;101343.38;4975669;28;20061;-82
2021/09/06 04:02:16;;;;;;;10.20;6.65;;;;;;;11.14;84.01;101352.16;4996475;28;20034;-82
2021/09/06 04:04:42;;;;;;;10.55;6.43;;;;;;;11.12;83.83;101345.97;4978351;28;20034;-81
2021/09/06 04:07:07;;;;;;;8.93;6.93;;;;;;;11.10;84.05;101350.38;4978944;28;20030;-82
2021/09/06 04:09:39;;;;;;;10.75;7.20;;;;;;;11.10;84.12;101350.38;4975692;28;20052;-81
2021/09/06 04:12:05;;;;;;;9.55;5.90;;;;;;;11.08;83.86;101352.09;4996053;28;20030;-82
2021/09/06 04:14:34;;;;;;;9.98;6.60;;;;;;;11.11;84.11;101349.50;4994598;28;20018;-81
2021/09/06 04:17:00;;;;;;;11.15;7.82;;;;;;;11.11;84.31;101355.66;4978407;28;20408;-82
2021/09/06 04:19:30;;;;;;;8.43;6.65;;;;;;;11.13;83.75;101350.38;4985073;28;20041;-79
2021/09/06 04:21:58;;;;;;;10.75;6.90;;;;;;;11.13;84.34;101359.22;4982564;28;20046;-81
2021/09/06 04:24:24;;;;;;;9.43;5.70;;;;;;;11.11;83.73;101362.72;4976987;28;20100;-83
2021/09/06 04:26:50;;;;;;;8.68;6.13;;;;;;;11.12;83.16;101365.34;4976034;28;20050;-82
2021/09/06 04:29:16;;;;;;;9.23;5.95;;;;;;;11.10;83.43;101366.22;4988879;28;20042;-80
2021/09/06 04:31:42;;;;;;;11.98;8.73;;;;;;;11.07;82.96;101361.81;4977715;28;20034;-82
2021/09/06 04:34:08;;;;;;;11.50;8.25;;;;;;;11.06;83.22;101367.09;4977593;28;20034;-83
2021/09/06 04:36:33;;;;;;;10.75;8.05;;;;;;;11.06;83.47;101370.63;4993076;28;20039;-82
2021/09/06 04:38:59;;;;;;;8.02;6.32;;;;;;;11.08;83.14;101368.88;4996668;28;20042;-82
2021/09/06 04:41:26;;;;;;;10.70;6.72;;;;;;;11.06;82.75;101369.75;4982776;28;20030;-81
2021/09/06 04:43:52;;;;;;;10.23;7.50;;;;;;;11.04;82.60;101368.84;4977393;28;20145;-83
2021/09/06 04:46:18;;;;;;;10.63;7.82;;;;;;;11.01;82.27;101369.69;4975959;28;20400;-82
2021/09/06 04:48:44;;;;;;;11.90;8.40;;;;;;;11.03;82.28;101374.97;4977662;28;20030;-81
2021/09/06 04:51:11;;;;;;;10.18;7.82;;;;;;;11.04;82.82;101374.13;4975738;28;20030;-82
2021/09/06 04:53:41;;;;;;;13.25;7.68;;;;;;;11.07;83.19;101374.13;4975452;28;20037;-82
2021/09/06 04:56:10;;;;;;;10.02;7.28;;;;;;;11.11;83.40;101378.56;4967468;28;20058;-83
2021/09/06 04:58:41;;;;;;;10.45;6.47;;;;;;;11.14;83.04;101381.22;4990848;28;20061;-83
2021/09/06 05:01:07;;;;;;;8.88;6.28;;;;;;;11.20;82.81;101378.59;4973704;28;20121;-83
2021/09/06 05:03:32;;;;;;;8.50;6.20;;;;;;;11.24;82.55;101379.47;4990536;28;20108;-82
2021/09/06 05:05:59;;;;;;;10.55;6.45;;;;;;;11.28;82.52;101379.50;4975476;28;20033;-83
2021/09/06 05:08:26;;;;;;;10.02;6.97;;;;;;;11.36;82.75;101382.19;4977213;28;20596;-82
2021/09/06 05:10:52;;;;;;;11.52;7.03;;;;;;;11.41;81.85;101386.63;4977369;28;20030;-83
2021/09/06 05:13:18;;;;;;;13.68;6.82;;;;;;;11.50;82.13;101385.78;4990614;28;20050;-82
2021/09/06 05:15:43;;;;;;;11.43;7.32;;;;;;;11.61;82.44;101389.34;4977483;28;20035;-82
2021/09/06 05:18:11;;;;;;;10.10;7.15;;;;;;;11.73;82.11;101387.59;4974212;28;20506;-83
2021/09/06 05:20:38;;;;;;;13.65;7.13;;;;;;;11.84;81.61;101394.72;4977230;28;20047;-82
2021/09/06 05:23:04;;;;;;;8.73;6.18;;;;;;;11.92;81.52;101401.78;4977031;28;20034;-83
2021/09/06 05:25:30;;;;;;;10.48;6.82;;;;;;;11.99;81.57;101404.44;4993018;28;20030;-82
2021/09/06 05:27:56;;;;;;;11.07;8.32;;;;;;;12.04;81.85;101400.06;4977235;28;20909;-83
2021/09/06 05:30:21;;;;;;;13.05;9.35;;;;;;;12.15;81.69;101402.72;4995008;28;20034;-83
2021/09/06 05:32:46;;;;;;;14.18;8.45;;;;;;;12.22;81.86;101400.97;4976666;28;20041;-83
2021/09/06 05:35:12;;;;;;;12.68;8.27;;;;;;;12.30;81.74;101408.91;4975710;28;20030;-82
2021/09/06 05:37:40;;;;;;;12.23;8.10;;;;;;;12.38;82.06;101407.16;4969152;28;20125;-82
2021/09/06 05:40:06;;;;;;;9.70;6.63;;;;;;;12.47;81.53;101407.13;4976933;28;20118;-83
2021/09/06 05:56:41;;;;;;;12.27;8.87;;;;;;;13.31;81.28;101414.13;4095554;26;20050;-83
2021/09/06 06:11:37;;;;;;;12.07;8.97;;;;;;;13.83;79.85;101413.88;4984115;28;20046;-84
2021/09/06 06:14:27;;;;;;;11.90;8.40;;;;;;;14.01;79.07;101411.09;4914439;28;20051;-84
2021/09/06 06:16:54;;;;;;;11.88;8.60;;;;;;;14.10;78.75;101412.84;4965616;28;20054;-83
2021/09/06 06:19:21;;;;;;;17.08;9.85;;;;;;;14.16;78.80;101411.91;4981583;28;20039;-83
2021/09/06 06:22:07;;;;;;;15.30;8.40;;;;;;;14.18;78.76;101415.44;4964362;28;20071;-84
2021/09/06 06:24:47;;;;;;;13.57;8.88;;;;;;;14.30;78.61;101420.66;4965179;28;20097;-83
2021/09/06 06:27:24;;;;;;;12.75;8.00;;;;;;;14.47;78.05;101408.13;4967051;28;20046;-83
2021/09/06 06:29:50;;;;;;;15.00;9.88;;;;;;;14.51;78.21;101408.09;4980594;28;20089;-83
2021/09/06 06:32:16;;;;;;;13.52;9.35;;;;;;;14.63;78.04;101419.53;4978063;28;20055;-83
2021/09/06 06:34:43;;;;;;;10.38;8.43;;;;;;;14.73;77.72;101416.81;4984394;28;20037;-84
2021/09/06 06:37:08;;;;;;;13.18;8.27;;;;;;;14.87;77.32;101418.44;4977573;28;20039;-84
2021/09/06 06:39:35;;;;;;;13.73;9.10;;;;;;;14.98;76.84;101420.97;4981453;28;20505;-83
2021/09/06 06:42:01;;;;;;;15.50;9.07;;;;;;;15.12;76.37;101419.06;4962479;28;20035;-83
2021/09/06 06:44:29;;;;;;;14.45;9.63;;;;;;;15.21;76.27;101418.06;4966115;28;20517;-84
2021/09/06 06:46:55;;;;;;;13.85;10.27;;;;;;;15.37;75.66;101423.22;4948954;28;20046;-83
2021/09/06 06:49:23;;;;;;;17.83;12.93;;;;;;;15.46;76.00;101423.13;4978451;28;20031;-84
2021/09/06 06:51:49;;;;;;;20.55;14.48;;;;;;;15.55;75.92;101420.34;4964925;28;20034;-83
2021/09/06 06:54:14;;;;;;;26.88;17.42;;;;;;;15.67;76.22;101422.84;4984078;28;20494;-84
2021/09/06 06:56:40;;;;;;;25.38;17.98;;;;;;;15.77;76.02;101426.28;4976708;28;20030;-83
2021/09/06 06:59:09;;;;;;;24.55;17.33;;;;;;;15.89;76.28;101427.91;4963751;28;20407;-84
2021/09/06 07:01:34;;;;;;;35.80;24.92;;;;;;;15.95;76.37;101425.16;4985314;28;20030;-84
2021/09/06 07:04:00;;;;;;;32.90;22.88;;;;;;;16.06;76.54;101431.25;4979417;28;20102;-84
2021/09/06 07:06:29;;;;;;;38.00;26.40;;;;;;;16.14;77.15;101429.34;4980537;28;20392;-84
2021/09/06 07:08:54;;;;;;;40.58;27.60;;;;;;;16.18;77.53;101436.34;4979538;28;20038;-84
2021/09/06 07:11:20;;;;;;;41.03;29.52;;;;;;;16.19;77.72;101435.47;4981209;28;20037;-84
2021/09/06 07:30:38;;;;;;;51.97;36.03;;;;;;;16.85;78.57;101444.22;1395418;26;20046;-84
2021/09/06 07:37:16;;;;;;;51.95;34.38;;;;;;;17.08;77.45;101452.69;4956782;29;20046;-84
2021/09/06 07:45:02;;;;;;;55.28;38.30;;;;;;;17.34;77.84;101458.41;5120083;22;20088;-84
2021/09/06 07:51:46;;;;;;;53.17;37.58;;;;;;;17.50;76.96;101450.09;4910369;29;20091;-85
2021/09/06 07:54:11;;;;;;;51.67;37.28;;;;;;;17.64;76.54;101451.59;4921152;29;20122;-84
2021/09/06 07:56:38;;;;;;;48.45;36.33;;;;;;;17.78;76.11;101449.50;4984497;28;20061;-84
2021/09/06 07:59:04;;;;;;;50.03;37.42;;;;;;;17.89;75.60;101451.97;5004392;28;20685;-84
2021/09/06 08:01:31;;;;;;;49.33;37.78;;;;;;;17.86;75.59;101452.91;4984447;28;20057;-84
2021/09/06 08:28:15;;;;;;;48.40;36.15;;;;;;;18.62;74.31;101468.09;5059059;22;20449;-85
2021/09/06 08:35:42;;;;;;;46.25;35.85;;;;;;;18.73;73.63;101474.06;5089911;23;20072;-84
2021/09/06 08:39:44;;;;;;;;;;;;;;;;;;;;;
2021/09/06 08:42:36;;;;;;;49.08;35.88;;;;;;;18.97;73.65;101467.25;4895402;28;20043;-84
2021/09/06 08:49:23;;;;;;;36.45;28.73;;;;;;;19.06;72.75;101471.47;5039099;28;20076;-85
2021/09/06 09:03:09;;;;;;;35.67;28.60;;;;;;;19.22;71.71;101480.81;5049757;28;20075;-84
2021/09/06 09:05:56;;;;;;;37.00;26.27;;;;;;;19.34;71.99;101470.72;5033368;28;20051;-85
2021/09/06 09:08:39;;;;;;;31.77;25.57;;;;;;;19.37;71.18;101482.22;5039856;28;20060;-84
2021/09/06 09:11:36;;;;;;;33.60;25.73;;;;;;;19.53;71.22;101477.31;5042625;28;20049;-84
2021/09/06 09:14:57;;;;;;;31.20;24.00;;;;;;;19.43;70.00;101482.03;5038148;28;20041;-84
2021/09/06 09:18:05;;;;;;;25.85;21.50;;;;;;;19.48;68.08;101487.28;5048089;28;20044;-85
2021/09/06 09:20:57;;;;;;;24.95;20.83;;;;;;;19.52;68.07;101483.59;5024508;28;20131;-84
2021/09/06 09:23:47;;;;;;;30.25;25.10;;;;;;;19.60;67.77;101478.03;5090453;23;20051;-85
2021/09/06 09:26:27;;;;;;;21.13;18.48;;;;;;;19.72;67.62;101475.00;5041050;28;20037;-84
2021/09/06 09:29:17;;;;;;;26.90;20.47;;;;;;;19.83;66.16;101480.94;5056537;28;20054;-84
2021/09/06 09:32:06;;;;;;;26.73;22.38;;;;;;;19.89;65.40;101474.53;5027660;28;20288;-85
2021/09/06 09:34:50;;;;;;;21.63;17.63;;;;;;;19.93;64.45;101476.19;5053619;28;20622;-84
2021/09/06 09:37:28;;;;;;;28.48;22.58;;;;;;;20.01;64.48;101467.91;5045181;28;20524;-83
2021/09/06 09:40:02;;;;;;;23.17;19.88;;;;;;;20.17;64.56;101469.19;5036084;28;20048;-84
2021/09/06 09:42:29;;;;;;;22.45;17.98;;;;;;;20.20;63.14;101462.84;5035444;28;20517;-84
2021/09/06 10:01:41;;;;;;;;;;;;;;;;;;;;;
2021/09/06 10:04:42;;;;;;;18.05;14.93;;;;;;;20.81;60.91;101450.16;5213570;22;20187;-83
2021/09/06 10:07:14;;;;;;;17.58;12.60;;;;;;;20.92;60.04;101449.78;5035307;28;20376;-83
2021/09/06 10:09:56;;;;;;;15.65;12.50;;;;;;;20.97;58.33;101442.47;5033381;28;20033;-83
2021/09/06 10:12:28;;;;;;;14.90;11.00;;;;;;;21.07;58.39;101440.34;5012571;28;20175;-84
2021/09/06 10:15:00;;;;;;;13.57;11.35;;;;;;;21.19;58.43;101430.00;5030315;28;20036;-83
2021/09/06 10:17:38;;;;;;;;;;;;;;;21.19;57.83;101438.06;5024182;28;20045;-84
2021/09/06 10:20:13;;;;;;;17.45;13.35;;;;;;;21.28;58.92;101438.69;5016459;28;19913;-85
2021/09/06 10:22:44;;;;;;;16.58;13.55;;;;;;;21.43;58.76;101441.72;5028309;28;20483;-84
2021/09/06 10:25:12;;;;;;;15.48;12.43;;;;;;;21.52;57.98;101437.81;5036572;28;20550;-85
2021/09/06 10:27:51;;;;;;;18.40;16.00;;;;;;;21.50;57.71;101433.44;4997120;28;20095;-83
2021/09/06 10:30:17;;;;;;;16.63;12.90;;;;;;;21.67;58.11;101439.94;5015226;28;20041;-83
2021/09/06 10:37:38;;;;;;;13.43;11.32;;;;;;;21.77;55.90;101437.78;4953012;29;20081;-84
2021/09/06 10:40:38;;;;;;;13.02;10.57;;;;;;;21.91;55.86;101423.78;4911021;29;20036;-84
2021/09/06 10:50:29;;;;;;;15.93;12.63;;;;;;;21.97;57.24;101428.03;4912863;29;20071;-83
2021/09/06 10:56:37;;;;;;;15.73;12.98;;;;;;;21.89;57.72;101421.16;5042817;28;20524;-84
2021/09/06 10:59:10;;;;;;;18.05;13.05;;;;;;;22.05;57.54;101425.94;5035619;28;20248;-84
2021/09/06 11:32:11;;;;;;;16.75;12.15;;;;;;;23.13;49.63;101407.09;4202300;26;19921;-83
2021/09/06 11:41:08;;;;;;;14.73;11.95;;;;;;;24.00;47.56;101404.88;5028832;28;20335;-83
2021/09/06 11:43:47;;;;;;;17.50;13.52;;;;;;;24.04;47.10;101401.06;5011620;28;20181;-83
2021/09/06 11:46:16;;;;;;;14.93;13.02;;;;;;;24.33;46.48;101406.84;5032634;28;20045;-83
2021/09/06 11:48:48;;;;;;;13.50;11.13;;;;;;;24.65;45.98;101397.16;5032994;28;20044;-83
2021/09/06 11:51:14;;;;;;;13.88;12.48;;;;;;;24.65;45.70;101396.28;5015240;28;20038;-83
2021/09/06 11:53:39;;;;;;;17.58;15.07;;;;;;;24.80;46.25;101403.56;5032729;28;20041;-83
2021/09/06 11:56:13;;;;;;;14.88;11.38;;;;;;;24.79;43.87;101404.53;5033722;28;20052;-83
2021/09/06 11:58:44;;;;;;;16.23;13.00;;;;;;;24.97;43.25;101391.00;5023587;28;20034;-83
2021/09/06 12:01:13;;;;;;;15.93;13.23;;;;;;;25.09;43.65;101390.38;5033034;28;20037;-83
2021/09/06 12:03:39;;;;;;;16.10;12.80;;;;;;;25.24;43.29;101395.00;5014326;28;20048;-84
2021/09/06 12:06:08;;;;;;;14.68;12.02;;;;;;;25.36;43.53;101379.94;5033988;28;20025;-83
2021/09/06 12:08:34;;;;;;;15.15;11.60;;;;;;;25.57;42.75;101375.16;5036211;28;20495;-83
2021/09/06 12:11:11;;;;;;;18.15;15.27;;;;;;;25.84;43.00;101388.13;5036822;28;20037;-83
2021/09/06 12:13:37;;;;;;;16.20;14.48;;;;;;;26.13;41.82;101381.06;5028180;28;20041;-83
2021/09/06 12:16:08;;;;;;;17.70;14.73;;;;;;;26.41;40.36;101380.34;5031908;28;20499;-83
2021/09/06 12:18:44;;;;;;;14.80;11.57;;;;;;;26.66;40.28;101375.22;5033338;28;20091;-84
2021/09/06 12:21:17;;;;;;;12.23;10.73;;;;;;;26.85;38.81;101379.50;5037012;28;20549;-83
2021/09/06 12:23:45;;;;;;;12.75;10.55;;;;;;;26.93;39.65;101384.47;5036852;28;20033;-84
2021/09/06 12:26:13;;;;;;;14.55;11.35;;;;;;;26.93;38.84;101373.63;5036698;28;20091;-83
2021/09/06 12:29:05;;;;;;;11.93;10.32;;;;;;;27.23;38.79;101379.03;5035677;28;20037;-84
2021/09/06 12:31:43;;;;;;;13.15;11.07;;;;;;;27.15;38.48;101371.34;5031207;28;20053;-83
2021/09/06 12:34:12;;;;;;;12.68;11.38;;;;;;;27.32;39.25;101373.00;5035524;28;20439;-84
2021/09/06 12:36:38;;;;;;;13.32;11.93;;;;;;;27.10;39.27;101366.19;5036635;28;20883;-83
2021/09/06 12:39:04;;;;;;;13.32;11.93;;;;;;;27.40;39.71;101367.97;5035748;28;20087;-84
2021/09/06 12:41:29;;;;;;;14.35;12.65;;;;;;;27.79;39.07;101363.66;5035090;28;20486;-84
2021/09/06 12:43:56;;;;;;;13.23;11.30;;;;;;;28.01;38.56;101367.69;5018559;28;20044;-84
2021/09/06 12:46:22;;;;;;;13.38;11.95;;;;;;;28.17;39.17;101365.72;5018628;28;20195;-84
2021/09/06 12:48:47;;;;;;;13.02;11.73;;;;;;;28.39;38.05;101363.28;5035209;28;20123;-84
2021/09/06 12:51:12;;;;;;;12.27;10.98;;;;;;;28.42;37.16;101363.06;5035521;28;20505;-84
2021/09/06 12:53:38;;;;;;;12.43;11.10;;;;;;;28.30;37.90;101357.63;5037001;28;20033;-84
2021/09/06 12:56:03;;;;;;;12.20;10.80;;;;;;;28.59;37.42;101352.97;5037205;28;20051;-84
2021/09/06 12:58:28;;;;;;;14.02;12.20;;;;;;;28.76;37.83;101355.34;5036122;28;20495;-84
2021/09/06 13:00:54;;;;;;;12.77;11.38;;;;;;;29.23;37.56;101353.88;5037631;28;20115;-84
2021/09/06 13:03:19;;;;;;;12.63;10.90;;;;;;;29.40;36.17;101351.81;5036413;28;20446;-84
2021/09/06 13:05:44;;;;;;;12.40;10.68;;;;;;;29.22;36.32;101356.72;5037634;28;20469;-84
2021/09/06 13:08:10;;;;;;;12.98;11.65;;;;;;;28.89;36.82;101354.50;5020022;28;20025;-84
2021/09/06 13:10:35;;;;;;;13.35;11.23;;;;;;;29.09;36.49;101351.28;5037323;28;20395;-84
2021/09/06 13:13:00;;;;;;;14.90;13.32;;;;;;;29.55;35.49;101349.81;5035958;28;20559;-84
2021/09/06 13:15:26;;;;;;;12.95;11.68;;;;;;;29.72;35.35;101354.06;5036310;28;20403;-84
2021/09/06 13:17:51;;;;;;;12.02;10.80;;;;;;;30.09;34.29;101352.16;5037310;28;20403;-84
2021/09/06 13:20:16;;;;;;;11.48;10.38;;;;;;;29.64;32.78;101352.75;5035795;28;20546;-83
2021/09/06 13:22:42;;;;;;;10.43;9.32;;;;;;;29.26;34.41;101350.94;5037075;28;20511;-84
2021/09/06 13:25:09;;;;;;;12.27;10.82;;;;;;;29.65;33.11;101338.16;5035694;28;20135;-83
2021/09/06 13:27:35;;;;;;;10.88;9.80;;;;;;;29.76;32.57;101341.94;5023726;28;20079;-84
2021/09/06 13:30:01;;;;;;;11.82;10.05;;;;;;;29.79;32.99;101337.16;5019532;28;20061;-84
2021/09/06 13:32:27;;;;;;;12.13;10.32;;;;;;;29.49;32.55;101342.97;5036791;28;20041;-84
2021/09/06 13:34:53;;;;;;;10.73;9.48;;;;;;;28.91;32.93;101341.69;5036699;28;20388;-84
2021/09/06 13:37:19;;;;;;;12.27;10.52;;;;;;;28.73;33.31;101342.00;5035491;28;20048;-84
2021/09/06 13:39:44;;;;;;;11.38;10.18;;;;;;;28.36;33.45;101341.78;5027651;28;20033;-84
2021/09/06 13:42:09;;;;;;;11.85;10.15;;;;;;;28.81;33.93;101336.03;5037627;28;20084;-84
2021/09/06 13:44:35;;;;;;;11.88;10.35;;;;;;;28.87;34.15;101340.16;5035805;28;20037;-84
2021/09/06 13:47:00;;;;;;;11.57;10.10;;;;;;;28.70;33.51;101334.06;5037259;28;20471;-84
2021/09/06 13:49:28;;;;;;;13.63;10.52;;;;;;;28.56;33.28;101336.88;5020117;28;20041;-84
2021/09/06 13:51:54;;;;;;;11.48;10.25;;;;;;;28.40;33.87;101340.63;5038047;28;20030;-84
2021/09/06 13:54:19;;;;;;;11.85;10.57;;;;;;;28.38;33.35;101344.41;5019918;28;20056;-84
2021/09/06 13:56:46;;;;;;;11.77;9.75;;;;;;;28.50;33.94;101346.28;5037666;28;20041;-84
2021/09/06 13:59:11;;;;;;;12.95;10.98;;;;;;;28.28;33.82;101338.72;5020304;28;20044;-84
2021/09/06 14:01:37;;;;;;;12.55;11.10;;;;;;;28.18;34.15;101332.19;5021301;28;20038;-84
2021/09/06 14:04:02;;;;;;;11.68;10.48;;;;;;;28.47;32.77;101332.06;5037527;28;20057;-84
2021/09/06 14:06:28;;;;;;;14.90;11.55;;;;;;;29.26;32.71;101325.59;5037205;28;20033;-84
2021/09/06 14:08:53;;;;;;;11.55;10.35;;;;;;;29.63;31.68;101333.78;5035790;28;20052;-84
2021/09/06 14:11:19;;;;;;;13.52;10.75;;;;;;;29.42;31.50;101334.41;5033456;28;20710;-84
2021/09/06 14:13:44;;;;;;;12.63;10.63;;;;;;;28.99;31.13;101333.84;5019057;28;20032;-83
2021/09/06 14:16:10;;;;;;;12.38;9.90;;;;;;;29.09;32.04;101334.97;5034276;28;20427;-84
2021/09/06 14:18:36;;;;;;;11.57;10.30;;;;;;;28.63;31.69;101332.75;5035549;28;20033;-84
2021/09/06 14:21:01;;;;;;;12.25;10.70;;;;;;;28.71;32.46;101333.06;5017803;28;20095;-84
2021/09/06 14:23:27;;;;;;;11.93;10.65;;;;;;;28.80;32.56;101331.59;5017816;28;20033;-84